createdAt,value
2023-03-13T00:01:49.659Z,4.90
2023-03-13T00:06:52.107Z,5.43
2023-03-13T00:11:54.746Z,4.53
2023-03-13T00:16:57.329Z,5.80
2023-03-13T00:21:59.982Z,5.47
2023-03-13T00:27:05.236Z,5.77
2023-03-13T00:32:07.900Z,4.40
2023-03-13T00:37:10.342Z,11.77
2023-03-13T00:42:12.762Z,4.27
2023-03-13T00:47:15.198Z,6.00
2023-03-13T00:52:19.331Z,6.43
2023-03-13T00:57:21.930Z,4.10
2023-03-13T01:02:24.499Z,4.20
2023-03-13T01:07:27.552Z,3.37
2023-03-13T01:12:30.598Z,3.73
2023-03-13T01:17:33.221Z,7.17
2023-03-13T01:22:35.731Z,5.27
2023-03-13T01:27:38.163Z,5.17
2023-03-13T01:32:41.264Z,8.97
2023-03-13T01:37:43.676Z,6.77
2023-03-13T01:43:00.431Z,4.43
2023-03-13T01:48:05.167Z,4.77
2023-03-13T01:53:21.839Z,5.57
2023-03-13T01:58:25.291Z,4.43
2023-03-13T02:03:29.636Z,3.47
2023-03-13T02:08:45.189Z,5.23
2023-03-13T02:13:50.216Z,3.47
2023-03-13T02:18:52.963Z,3.10
2023-03-13T02:24:13.025Z,4.40
2023-03-13T02:29:18.666Z,2.47
2023-03-13T02:34:27.801Z,5.77
2023-03-13T02:39:34.215Z,2.70
2023-03-13T02:44:41.496Z,2.80
2023-03-13T02:49:45.015Z,4.43
2023-03-13T02:54:51.639Z,2.13
2023-03-13T02:59:56.091Z,3.23
2023-03-13T03:04:59.042Z,1.63
2023-03-13T03:10:01.644Z,2.83
2023-03-13T03:15:05.143Z,5.27
2023-03-13T03:20:12.190Z,2.33
2023-03-13T03:25:18.162Z,1.93
2023-03-13T03:30:23.085Z,2.10
2023-03-13T03:35:27.413Z,2.57
2023-03-13T03:40:30.382Z,3.03
2023-03-13T03:45:33.011Z,1.80
2023-03-13T03:50:35.659Z,2.17
2023-03-13T03:55:38.039Z,2.40
2023-03-13T04:00:43.693Z,1.23
2023-03-13T04:05:45.895Z,3.03
2023-03-13T04:10:49.460Z,1.30
2023-03-13T04:15:53.290Z,0.83
2023-03-13T04:21:02.842Z,1.53
2023-03-13T04:26:08.005Z,0.93
2023-03-13T04:31:11.194Z,0.70
2023-03-13T04:36:31.857Z,1.40
2023-03-13T04:41:49.367Z,0.73
2023-03-13T04:47:21.461Z,2.03
2023-03-13T04:52:38.095Z,0.93
2023-03-13T04:58:00.730Z,0.97
2023-03-13T05:03:21.775Z,2.40
2023-03-13T05:08:46.527Z,0.80
2023-03-13T05:14:04.595Z,0.73
2023-03-13T05:19:23.280Z,0.90
2023-03-13T05:24:38.356Z,0.67
2023-03-13T05:29:54.005Z,1.73
2023-03-13T05:35:19.363Z,1.17
2023-03-13T05:40:24.378Z,1.80
2023-03-13T05:45:43.539Z,0.70
2023-03-13T05:50:51.737Z,0.50
2023-03-13T05:56:17.013Z,0.93
2023-03-13T06:01:39.056Z,1.47
2023-03-13T06:06:50.660Z,0.77
2023-03-13T06:11:55.007Z,0.40
2023-03-13T06:16:57.824Z,0.57
2023-03-13T06:22:02.324Z,0.20
2023-03-13T06:27:04.420Z,0.37
2023-03-13T06:32:07.232Z,0.67
2023-03-13T06:37:09.437Z,1.17
2023-03-13T06:42:11.496Z,0.97
2023-03-13T06:47:15.534Z,0.33
2023-03-13T06:52:19.381Z,0.60
2023-03-13T06:57:22.406Z,1.10
2023-03-13T07:02:24.720Z,1.47
2023-03-13T07:07:31.688Z,0.37
2023-03-13T07:12:37.858Z,0.30
2023-03-13T07:17:39.987Z,0.50
2023-03-13T07:22:42.007Z,1.23
2023-03-13T07:27:44.027Z,0.53
2023-03-13T07:32:46.224Z,0.53
2023-03-13T07:37:48.661Z,0.80
2023-03-13T07:42:50.838Z,0.43
2023-03-13T07:47:57.673Z,1.77
2023-03-13T07:52:59.727Z,0.50
2023-03-13T07:58:01.771Z,0.67
2023-03-13T08:03:07.489Z,1.30
2023-03-13T08:08:10.282Z,0.87
2023-03-13T08:13:12.797Z,0.97
2023-03-13T08:18:14.824Z,1.10
2023-03-13T08:23:16.989Z,2.37
2023-03-13T08:28:19.392Z,0.60
2023-03-13T08:33:21.873Z,0.73
2023-03-13T08:38:24.039Z,1.43
2023-03-13T08:43:31.388Z,1.07
2023-03-13T08:48:36.579Z,0.97
2023-03-13T08:53:40.962Z,0.60
2023-03-13T08:58:43.562Z,1.47
2023-03-13T09:03:46.009Z,0.77
2023-03-13T09:08:48.731Z,1.53
2023-03-13T09:13:51.766Z,0.70
2023-03-13T09:18:53.948Z,0.93
2023-03-13T09:23:56.597Z,1.23
2023-03-13T09:28:59.645Z,1.00
2023-03-13T09:34:02.749Z,1.17
2023-03-13T09:39:04.839Z,5.17
2023-03-13T09:44:20.206Z,0.83
2023-03-13T09:49:48.832Z,1.00
2023-03-13T09:55:05.474Z,0.80
2023-03-13T10:00:30.172Z,1.17
2023-03-13T10:05:33.778Z,1.17
2023-03-13T10:11:04.648Z,3.00
2023-03-13T10:16:23.038Z,1.33
2023-03-13T10:21:37.135Z,1.20
2023-03-13T10:26:40.003Z,1.50
2023-03-13T10:31:55.272Z,3.97
2023-03-13T10:37:01.992Z,1.20
2023-03-13T10:42:29.089Z,1.30
2023-03-13T10:47:35.876Z,3.33
2023-03-13T10:52:44.942Z,3.77
2023-03-13T10:58:04.782Z,2.00
2023-03-13T11:03:20.150Z,2.60
2023-03-13T11:08:29.153Z,1.63
2023-03-13T11:13:37.230Z,2.40
2023-03-13T11:18:48.526Z,3.17
2023-03-13T11:24:04.537Z,2.47
2023-03-13T11:29:27.086Z,2.57
2023-03-13T11:34:55.060Z,1.37
2023-03-13T11:40:31.961Z,2.47
2023-03-13T11:45:49.231Z,1.30
2023-03-13T11:51:49.636Z,2.27
2023-03-13T11:56:58.609Z,1.20
2023-03-13T12:02:25.104Z,1.50
2023-03-13T12:08:01.860Z,1.10
2023-03-13T12:13:18.572Z,1.30
2023-03-13T12:18:46.002Z,2.67
2023-03-13T12:24:40.357Z,1.63
2023-03-13T12:30:05.423Z,1.60
2023-03-13T12:35:29.049Z,2.00
2023-03-13T12:40:55.308Z,1.60
2023-03-13T12:45:57.318Z,1.53
2023-03-13T12:51:33.737Z,1.60
2023-03-13T12:57:14.536Z,1.17
2023-03-13T13:02:25.657Z,1.87
2023-03-13T13:07:38.685Z,1.20
2023-03-13T13:12:47.052Z,2.13
2023-03-13T13:18:22.035Z,1.10
2023-03-13T13:23:34.271Z,2.03
2023-03-13T13:28:36.595Z,1.67
2023-03-13T13:33:41.141Z,1.73
2023-03-13T13:38:43.553Z,1.27
2023-03-13T13:43:50.084Z,1.67
2023-03-13T13:49:07.785Z,1.17
2023-03-13T13:54:18.845Z,0.90
2023-03-13T13:59:21.139Z,1.77
2023-03-13T14:04:36.264Z,0.77
2023-03-13T14:09:46.493Z,0.97
2023-03-13T14:14:48.694Z,2.37
2023-03-13T14:19:51.090Z,0.90
2023-03-13T14:24:58.989Z,0.90
2023-03-13T14:30:09.457Z,1.50
2023-03-13T14:35:20.969Z,1.10
2023-03-13T14:40:33.370Z,1.90
2023-03-13T14:45:37.179Z,0.90
2023-03-13T14:50:45.888Z,1.13
2023-03-13T14:55:49.482Z,1.30
2023-03-13T15:00:51.974Z,2.67
2023-03-13T15:06:12.537Z,2.23
2023-03-13T15:11:29.034Z,2.70
2023-03-13T15:16:31.174Z,1.97
2023-03-13T15:21:35.065Z,2.00
2023-03-13T15:26:37.101Z,1.43
2023-03-13T15:31:40.180Z,1.23
2023-03-13T15:36:42.785Z,1.47
2023-03-13T15:41:44.916Z,1.13
2023-03-13T15:46:48.105Z,2.37
2023-03-13T15:51:50.814Z,1.63
2023-03-13T15:56:53.068Z,1.43
2023-03-13T16:01:55.061Z,2.73
2023-03-13T16:06:58.171Z,1.17
2023-03-13T16:12:00.281Z,1.03
2023-03-13T16:17:10.537Z,1.23
2023-03-13T16:22:12.977Z,3.03
2023-03-13T16:27:18.060Z,1.63
2023-03-13T16:32:24.435Z,2.00
2023-03-13T16:37:26.519Z,1.70
2023-03-13T16:42:28.542Z,1.53
2023-03-13T16:47:31.717Z,2.53
2023-03-13T16:52:33.785Z,1.60
2023-03-13T16:57:36.654Z,1.30
2023-03-13T17:02:39.229Z,1.20
2023-03-13T17:07:43.233Z,2.53
2023-03-13T17:12:45.610Z,2.47
2023-03-13T17:17:52.759Z,2.47
2023-03-13T17:22:56.668Z,4.20
2023-03-13T17:27:59.121Z,1.70
2023-03-13T17:33:01.260Z,3.20
2023-03-13T17:38:03.389Z,4.23
2023-03-13T17:43:05.696Z,4.47
2023-03-13T17:48:13.376Z,4.00
2023-03-13T17:53:15.529Z,4.53
2023-03-13T17:58:18.467Z,5.87
2023-03-13T18:03:20.795Z,3.03
2023-03-13T18:08:23.076Z,2.93
2023-03-13T18:13:25.122Z,3.83
2023-03-13T18:18:27.241Z,2.83
2023-03-13T18:23:29.548Z,6.53
2023-03-13T18:28:31.647Z,2.73
2023-03-13T18:33:33.675Z,3.57
2023-03-13T18:38:35.874Z,2.17
2023-03-13T18:43:38.292Z,1.43
2023-03-13T18:48:40.315Z,2.83
2023-03-13T18:53:43.378Z,10.90
2023-03-13T18:58:50.146Z,2.47
2023-03-13T19:03:53.449Z,1.87
2023-03-13T19:09:42.812Z,1.67
2023-03-13T19:14:42.711Z,1.33
2023-03-13T19:19:45.122Z,2.30
2023-03-13T19:24:47.636Z,1.30
2023-03-13T19:29:50.443Z,2.30
2023-03-13T19:34:53.139Z,2.60
2023-03-13T19:39:55.523Z,1.50
2023-03-13T19:44:57.912Z,1.40
2023-03-13T19:50:00.421Z,1.77
2023-03-13T19:55:05.070Z,2.40
2023-03-13T20:00:14.068Z,2.20
2023-03-13T20:05:16.761Z,3.47
2023-03-13T20:10:19.481Z,4.07
2023-03-13T20:15:22.400Z,4.10
2023-03-13T20:20:24.803Z,4.00
2023-03-13T20:25:28.760Z,0.80
2023-03-13T20:30:31.270Z,1.33
2023-03-13T20:35:34.208Z,1.30
2023-03-13T20:40:37.163Z,0.77
2023-03-13T20:45:39.581Z,0.97
2023-03-13T20:50:42.768Z,1.40
2023-03-13T20:55:45.562Z,1.20
2023-03-13T21:00:48.909Z,2.33
2023-03-13T21:05:51.677Z,0.83
2023-03-13T21:10:54.134Z,0.60
2023-03-13T21:16:03.294Z,1.40
2023-03-13T21:21:08.263Z,1.70
2023-03-13T21:26:10.871Z,1.07
2023-03-13T21:31:16.199Z,0.90
2023-03-13T21:36:21.300Z,1.43
2023-03-13T21:41:23.875Z,2.10
2023-03-13T21:46:33.396Z,1.63
2023-03-13T21:51:35.860Z,0.70
2023-03-13T21:56:38.488Z,0.50
2023-03-13T22:01:42.407Z,0.60
2023-03-13T22:06:44.948Z,2.67
2023-03-13T22:11:47.536Z,0.77
2023-03-13T22:16:50.446Z,0.97
2023-03-13T22:21:53.059Z,1.10
2023-03-13T22:26:55.476Z,1.57
2023-03-13T22:31:57.983Z,0.70
2023-03-13T22:37:00.492Z,0.50
2023-03-13T22:42:03.656Z,0.50
2023-03-13T22:47:06.115Z,0.50
2023-03-13T22:52:08.730Z,0.37
2023-03-13T22:57:11.122Z,0.40
2023-03-13T23:02:13.556Z,1.13
2023-03-13T23:07:16.033Z,0.37
2023-03-13T23:12:18.562Z,1.30
2023-03-13T23:17:21.577Z,1.37
2023-03-13T23:22:29.107Z,0.73
2023-03-13T23:27:32.066Z,0.50
2023-03-13T23:32:39.401Z,1.67
2023-03-13T23:37:41.828Z,0.30
2023-03-13T23:42:50.512Z,1.50
2023-03-13T23:47:53.978Z,0.30
2023-03-13T23:52:56.352Z,0.40
2023-03-13T23:57:58.895Z,0.60
